createdAt,value
2019-03-04T00:01:02.289Z,11.40
2019-03-04T00:02:03.312Z,11.40
2019-03-04T00:03:04.349Z,11.40
2019-03-04T00:04:05.437Z,11.40
2019-03-04T00:05:06.558Z,11.40
2019-03-04T00:06:07.661Z,11.50
2019-03-04T00:07:10.586Z,11.40
2019-03-04T00:08:11.724Z,11.40
2019-03-04T00:09:12.755Z,11.40
2019-03-04T00:10:14.082Z,11.40
2019-03-04T00:11:15.110Z,11.40
2019-03-04T00:12:16.129Z,11.50
2019-03-04T00:13:17.169Z,11.50
2019-03-04T00:14:18.214Z,11.50
2019-03-04T00:15:19.243Z,11.50
2019-03-04T00:16:20.266Z,11.50
2019-03-04T00:17:21.298Z,11.50
2019-03-04T00:18:22.324Z,11.50
2019-03-04T00:19:23.333Z,11.50
2019-03-04T00:20:24.878Z,11.50
2019-03-04T00:21:25.900Z,11.50
2019-03-04T00:22:26.926Z,11.50
2019-03-04T00:23:27.969Z,11.50
2019-03-04T00:24:28.996Z,11.60
2019-03-04T00:25:30.017Z,11.60
2019-03-04T00:26:31.036Z,11.60
2019-03-04T00:27:32.059Z,11.60
2019-03-04T00:28:33.095Z,11.70
2019-03-04T00:29:34.110Z,11.70
2019-03-04T00:30:35.141Z,11.60
2019-03-04T00:31:36.161Z,11.70
2019-03-04T00:32:37.178Z,11.70
2019-03-04T00:33:38.210Z,11.70
2019-03-04T00:34:39.237Z,11.70
2019-03-04T00:35:40.257Z,11.70
2019-03-04T00:36:41.276Z,11.70
2019-03-04T00:37:42.293Z,11.70
2019-03-04T00:38:43.331Z,11.80
2019-03-04T00:39:44.342Z,11.80
2019-03-04T00:40:45.357Z,11.80
2019-03-04T00:41:46.382Z,11.80
2019-03-04T00:42:47.410Z,11.80
2019-03-04T00:43:48.501Z,11.80
2019-03-04T00:44:49.525Z,11.80
2019-03-04T00:45:50.541Z,11.80
2019-03-04T00:46:51.568Z,11.80
2019-03-04T00:47:52.586Z,11.80
2019-03-04T00:48:53.614Z,11.80
2019-03-04T00:49:56.932Z,11.80
2019-03-04T00:50:57.606Z,11.80
2019-03-04T00:51:58.620Z,11.80
2019-03-04T00:52:59.639Z,11.80
2019-03-04T00:54:00.673Z,11.70
2019-03-04T00:55:01.702Z,11.80
2019-03-04T00:56:02.821Z,11.70
2019-03-04T00:57:03.842Z,11.70
2019-03-04T00:58:04.950Z,11.70
2019-03-04T00:59:06.065Z,11.70
2019-03-04T01:00:13.837Z,11.80
2019-03-04T01:01:14.855Z,11.80
2019-03-04T01:02:15.934Z,11.80
2019-03-04T01:03:16.966Z,11.90
2019-03-04T01:04:17.997Z,11.90
2019-03-04T01:05:19.174Z,11.90
2019-03-04T01:06:20.194Z,11.90
2019-03-04T01:07:21.238Z,12.00
2019-03-04T01:08:22.259Z,12.00
2019-03-04T01:09:23.289Z,11.90
2019-03-04T01:10:24.317Z,11.90
2019-03-04T01:11:25.338Z,11.90
2019-03-04T01:12:26.353Z,11.90
2019-03-04T01:13:27.369Z,11.90
2019-03-04T01:14:28.393Z,11.80
2019-03-04T01:15:29.473Z,11.90
2019-03-04T01:16:30.545Z,11.80
2019-03-04T01:17:31.561Z,11.80
2019-03-04T01:18:32.574Z,11.80
2019-03-04T01:19:33.609Z,11.80
2019-03-04T01:20:34.641Z,11.80
2019-03-04T01:21:35.764Z,11.80
2019-03-04T01:22:36.781Z,11.80
2019-03-04T01:23:37.906Z,11.90
2019-03-04T01:24:38.933Z,11.90
2019-03-04T01:25:39.952Z,11.80
2019-03-04T01:26:41.397Z,11.80
2019-03-04T01:27:42.405Z,11.80
2019-03-04T01:28:43.426Z,11.90
2019-03-04T01:29:44.446Z,11.90
2019-03-04T01:30:45.465Z,11.90
2019-03-04T01:31:46.486Z,11.90
2019-03-04T01:32:47.960Z,11.90
2019-03-04T01:33:49.018Z,11.90
2019-03-04T01:34:50.056Z,11.90
2019-03-04T01:35:51.086Z,11.90
2019-03-04T01:36:52.444Z,11.90
2019-03-04T01:37:53.461Z,11.90
2019-03-04T01:38:56.461Z,11.90
2019-03-04T01:39:57.589Z,11.90
2019-03-04T01:40:58.630Z,11.90
2019-03-04T01:41:59.637Z,12.00
2019-03-04T01:43:00.682Z,12.00
2019-03-04T01:44:01.707Z,12.00
2019-03-04T01:45:03.942Z,12.00
2019-03-04T01:46:07.709Z,12.00
2019-03-04T01:47:08.731Z,12.00
2019-03-04T01:48:09.744Z,12.00
2019-03-04T01:49:10.856Z,12.00
2019-03-04T01:50:12.994Z,12.00
2019-03-04T01:51:14.311Z,12.00
2019-03-04T01:52:15.329Z,11.90
2019-03-04T01:53:16.673Z,12.00
2019-03-04T01:54:17.694Z,12.00
2019-03-04T01:55:19.499Z,12.00
2019-03-04T01:56:20.515Z,12.10
2019-03-04T01:57:21.570Z,12.10
2019-03-04T01:58:22.585Z,12.10
2019-03-04T01:59:23.599Z,12.20
2019-03-04T02:00:24.626Z,12.20
2019-03-04T02:01:25.649Z,12.20
2019-03-04T02:02:26.664Z,12.10
2019-03-04T02:03:28.041Z,12.20
2019-03-04T02:04:29.063Z,12.20
2019-03-04T02:05:30.085Z,12.10
2019-03-04T02:06:31.109Z,12.10
2019-03-04T02:07:32.129Z,12.10
2019-03-04T02:08:33.153Z,12.10
2019-03-04T02:09:34.173Z,12.20
2019-03-04T02:10:37.401Z,12.20
2019-03-04T02:11:38.418Z,12.20
2019-03-04T02:12:39.442Z,12.20
2019-03-04T02:13:40.871Z,12.20
2019-03-04T02:14:41.890Z,12.10
2019-03-04T02:15:42.925Z,12.20
2019-03-04T02:16:43.950Z,12.10
2019-03-04T02:17:44.976Z,12.10
2019-03-04T02:18:46.079Z,12.10
2019-03-04T02:19:47.101Z,12.20
2019-03-04T02:20:48.126Z,12.20
2019-03-04T02:21:49.249Z,12.20
2019-03-04T02:22:50.279Z,12.20
2019-03-04T02:23:51.726Z,12.20
2019-03-04T02:24:52.741Z,12.20
2019-03-04T02:26:04.605Z,12.20
2019-03-04T02:27:06.921Z,12.10
2019-03-04T02:28:07.937Z,12.20
2019-03-04T02:29:08.962Z,12.20
2019-03-04T02:30:17.829Z,12.20
2019-03-04T02:31:18.961Z,12.20
2019-03-04T02:32:20.075Z,12.30
2019-03-04T02:33:21.173Z,12.20
2019-03-04T02:34:22.212Z,12.20
2019-03-04T02:35:23.272Z,12.20
2019-03-04T02:36:24.373Z,12.30
2019-03-04T02:37:25.414Z,12.30
2019-03-04T02:38:26.451Z,12.30
2019-03-04T02:39:27.670Z,12.30
2019-03-04T02:40:28.902Z,12.30
2019-03-04T02:41:29.919Z,12.30
2019-03-04T02:42:30.937Z,12.20
2019-03-04T02:43:32.175Z,12.30
2019-03-04T02:44:33.305Z,12.20
2019-03-04T02:45:34.446Z,12.30
2019-03-04T02:46:35.462Z,12.20
2019-03-04T02:47:36.506Z,12.20
2019-03-04T02:48:37.519Z,12.20
2019-03-04T02:49:38.541Z,12.20
2019-03-04T02:50:39.578Z,12.20
2019-03-04T02:51:40.849Z,12.20
2019-03-04T02:52:41.939Z,12.20
2019-03-04T02:53:43.074Z,12.20
2019-03-04T02:54:44.081Z,12.20
2019-03-04T02:55:45.123Z,12.20
2019-03-04T02:56:46.150Z,12.20
2019-03-04T02:57:47.173Z,12.20
2019-03-04T02:58:48.182Z,12.30
2019-03-04T02:59:49.404Z,12.20
2019-03-04T03:00:50.432Z,12.20
2019-03-04T03:01:51.549Z,12.30
2019-03-04T03:02:52.915Z,12.30
2019-03-04T03:03:53.925Z,12.20
2019-03-04T03:04:55.152Z,12.20
2019-03-04T03:05:56.184Z,12.20
2019-03-04T03:06:57.298Z,12.20
2019-03-04T03:07:58.346Z,12.20
2019-03-04T03:08:59.361Z,12.20
2019-03-04T03:10:00.418Z,12.20
2019-03-04T03:11:01.519Z,12.20
2019-03-04T03:12:02.936Z,12.30
2019-03-04T03:13:03.953Z,12.20
2019-03-04T03:14:06.875Z,12.20
2019-03-04T03:15:09.196Z,12.20
2019-03-04T03:16:11.032Z,12.20
2019-03-04T03:17:12.180Z,12.20
2019-03-04T03:18:13.222Z,12.20
2019-03-04T03:19:14.324Z,12.20
2019-03-04T03:20:15.457Z,12.20
2019-03-04T03:21:16.480Z,12.20
2019-03-04T03:22:17.605Z,12.20
2019-03-04T03:23:19.024Z,12.20
2019-03-04T03:24:20.152Z,12.20
2019-03-04T03:25:21.259Z,12.20
2019-03-04T03:26:22.567Z,12.20
2019-03-04T03:27:23.731Z,12.20
2019-03-04T03:28:24.745Z,12.20
2019-03-04T03:29:25.769Z,12.10
2019-03-04T03:30:27.199Z,12.10
2019-03-04T03:31:28.322Z,12.00
2019-03-04T03:32:29.343Z,12.10
2019-03-04T03:33:30.671Z,12.00
2019-03-04T03:34:31.747Z,12.10
2019-03-04T03:35:32.854Z,12.00
2019-03-04T03:36:33.886Z,12.00
2019-03-04T03:37:36.810Z,12.00
2019-03-04T03:38:37.941Z,12.00
2019-03-04T03:39:39.044Z,12.00
2019-03-04T03:40:40.065Z,12.00
2019-03-04T03:41:41.088Z,12.00
2019-03-04T03:42:42.168Z,12.00
2019-03-04T03:43:43.269Z,12.00
2019-03-04T03:44:44.282Z,12.00
2019-03-04T03:45:45.558Z,12.00
2019-03-04T03:46:46.578Z,12.00
2019-03-04T03:47:47.704Z,12.00
2019-03-04T03:48:49.842Z,11.90
2019-03-04T03:49:50.863Z,11.90
2019-03-04T03:50:53.300Z,11.90
2019-03-04T03:51:54.425Z,11.90
2019-03-04T03:52:55.458Z,11.90
2019-03-04T03:53:56.527Z,11.90
2019-03-04T03:54:58.711Z,11.90
2019-03-04T03:55:59.739Z,11.80
2019-03-04T03:57:00.762Z,11.80
2019-03-04T03:58:01.785Z,11.80
2019-03-04T03:59:02.905Z,11.80
2019-03-04T04:00:05.822Z,11.90
2019-03-04T04:01:06.855Z,11.90
2019-03-04T04:02:07.871Z,11.90
2019-03-04T04:03:08.894Z,11.90
2019-03-04T04:04:11.623Z,11.90
2019-03-04T04:05:14.543Z,11.90
2019-03-04T04:06:15.574Z,11.90
2019-03-04T04:07:17.425Z,11.90
2019-03-04T04:08:19.315Z,11.90
2019-03-04T04:09:20.334Z,11.90
2019-03-04T04:10:21.549Z,11.90
2019-03-04T04:11:22.474Z,11.90
2019-03-04T04:12:23.390Z,11.90
2019-03-04T04:13:24.305Z,11.80
2019-03-04T04:14:29.338Z,11.80
2019-03-04T04:15:30.515Z,11.80
2019-03-04T04:16:31.651Z,11.90
2019-03-04T04:17:32.584Z,11.80
2019-03-04T04:18:33.590Z,11.80
2019-03-04T04:19:36.411Z,11.80
2019-03-04T04:20:37.331Z,11.80
2019-03-04T04:21:38.277Z,11.90
2019-03-04T04:22:39.281Z,11.80
2019-03-04T04:23:40.503Z,11.80
2019-03-04T04:24:41.426Z,11.90
2019-03-04T04:25:42.341Z,12.00
2019-03-04T04:26:43.378Z,11.90
2019-03-04T04:27:46.298Z,11.90
2019-03-04T04:28:47.823Z,11.80
2019-03-04T04:29:48.738Z,11.80
2019-03-04T04:30:51.666Z,11.70
2019-03-04T04:31:52.586Z,11.80
2019-03-04T04:32:53.503Z,11.70
2019-03-04T04:33:54.422Z,11.70
2019-03-04T04:34:55.337Z,11.70
2019-03-04T04:35:56.266Z,11.70
2019-03-04T04:36:57.193Z,11.70
2019-03-04T04:37:58.117Z,11.80
2019-03-04T04:39:01.446Z,11.80
2019-03-04T04:40:02.775Z,11.80
2019-03-04T04:41:03.681Z,11.80
2019-03-04T04:42:06.613Z,11.80
2019-03-04T04:43:07.525Z,11.80
2019-03-04T04:44:08.439Z,11.70
2019-03-04T04:45:11.861Z,11.80
2019-03-04T04:46:12.772Z,11.80
2019-03-04T04:47:13.709Z,11.80
2019-03-04T04:48:14.625Z,11.80
2019-03-04T04:49:15.545Z,11.80
2019-03-04T04:50:20.806Z,11.80
2019-03-04T04:51:21.727Z,11.80
2019-03-04T04:52:23.367Z,11.90
2019-03-04T04:53:26.469Z,11.80
2019-03-04T04:54:27.389Z,11.90
2019-03-04T04:55:28.352Z,11.80
2019-03-04T04:56:29.333Z,11.90
2019-03-04T04:57:30.253Z,12.00
2019-03-04T04:58:31.225Z,12.00
2019-03-04T04:59:32.160Z,12.00
2019-03-04T05:00:33.077Z,12.00
2019-03-04T05:01:36.081Z,12.00
2019-03-04T05:02:37.017Z,12.10
2019-03-04T05:03:37.934Z,12.10
2019-03-04T05:04:38.851Z,12.10
2019-03-04T05:05:39.772Z,12.10
2019-03-04T05:06:40.690Z,12.10
2019-03-04T05:07:41.721Z,12.20
2019-03-04T05:08:42.717Z,12.20
2019-03-04T05:09:45.631Z,12.10
2019-03-04T05:10:46.543Z,12.10
2019-03-04T05:11:47.478Z,12.10
2019-03-04T05:12:50.351Z,12.10
2019-03-04T05:13:51.398Z,12.10
2019-03-04T05:14:52.433Z,12.10
2019-03-04T05:15:53.477Z,12.10
2019-03-04T05:16:54.515Z,12.10
2019-03-04T05:17:55.616Z,12.10
2019-03-04T05:18:56.552Z,12.10
2019-03-04T05:19:57.473Z,12.20
2019-03-04T05:21:00.301Z,12.20
2019-03-04T05:22:01.218Z,12.10
2019-03-04T05:23:02.182Z,12.10
2019-03-04T05:24:03.100Z,12.20
2019-03-04T05:25:04.116Z,12.20
2019-03-04T05:26:05.030Z,12.20
2019-03-04T05:27:05.957Z,12.10
2019-03-04T05:28:06.883Z,12.10
2019-03-04T05:29:07.815Z,12.20
2019-03-04T05:30:12.642Z,12.20
2019-03-04T05:31:13.655Z,12.30
2019-03-04T05:32:14.569Z,12.50
2019-03-04T05:33:15.493Z,12.50
2019-03-04T05:34:16.525Z,12.60
2019-03-04T05:35:19.438Z,12.50
2019-03-04T05:36:20.360Z,12.50
2019-03-04T05:37:21.290Z,12.60
2019-03-04T05:38:22.221Z,12.60
2019-03-04T05:39:23.237Z,12.70
2019-03-04T05:40:24.162Z,12.70
2019-03-04T05:41:25.086Z,12.60
2019-03-04T05:42:26.084Z,12.70
2019-03-04T05:43:28.985Z,12.60
2019-03-04T05:44:29.900Z,12.60
2019-03-04T05:45:32.831Z,12.70
2019-03-04T05:46:33.845Z,12.60
2019-03-04T05:47:36.687Z,12.60
2019-03-04T05:48:37.713Z,12.60
2019-03-04T05:49:40.637Z,12.60
2019-03-04T05:50:41.660Z,12.60
2019-03-04T05:51:44.581Z,12.60
2019-03-04T05:52:46.013Z,12.60
2019-03-04T05:53:47.042Z,12.60
2019-03-04T05:54:48.073Z,12.60
2019-03-04T05:55:49.101Z,12.60
2019-03-04T05:56:50.124Z,12.70
2019-03-04T05:57:53.063Z,12.70
2019-03-04T05:58:54.202Z,12.60
2019-03-04T05:59:55.342Z,12.80
2019-03-04T06:01:16.307Z,12.80
2019-03-04T06:02:17.446Z,12.80
2019-03-04T06:03:20.397Z,12.80
2019-03-04T06:04:21.544Z,12.80
2019-03-04T06:05:22.686Z,12.80
2019-03-04T06:06:42.464Z,12.90
2019-03-04T06:07:51.305Z,12.90
2019-03-04T06:08:52.449Z,12.90
2019-03-04T06:09:53.589Z,12.80
2019-03-04T06:10:54.729Z,12.90
2019-03-04T06:11:56.156Z,12.90
2019-03-04T06:12:58.902Z,12.90
2019-03-04T06:14:00.149Z,12.90
2019-03-04T06:15:01.474Z,12.90
2019-03-04T06:16:02.612Z,12.80
2019-03-04T06:17:03.747Z,12.90
2019-03-04T06:18:04.895Z,12.90
2019-03-04T06:19:06.035Z,12.90
2019-03-04T06:20:09.978Z,12.90
2019-03-04T06:21:11.121Z,13.00
2019-03-04T06:22:12.278Z,13.00
2019-03-04T06:23:13.527Z,12.90
2019-03-04T06:24:14.766Z,12.90
2019-03-04T06:25:18.264Z,12.90
2019-03-04T06:26:19.450Z,12.90
2019-03-04T06:27:20.596Z,12.90
2019-03-04T06:28:21.746Z,12.90
2019-03-04T06:29:22.885Z,13.00
2019-03-04T06:30:28.674Z,12.90
2019-03-04T06:31:29.858Z,12.90
2019-03-04T06:32:30.987Z,13.00
2019-03-04T06:33:32.134Z,13.00
2019-03-04T06:34:33.269Z,13.00
2019-03-04T06:35:34.418Z,13.00
2019-03-04T06:36:35.553Z,13.00
2019-03-04T06:37:37.015Z,13.10
2019-03-04T06:38:38.480Z,13.10
2019-03-04T06:39:39.919Z,13.10
2019-03-04T06:40:41.062Z,13.20
2019-03-04T06:41:42.469Z,13.20
2019-03-04T06:42:43.607Z,13.20
2019-03-04T06:43:44.757Z,13.20
2019-03-04T06:44:45.898Z,13.20
2019-03-04T06:45:47.034Z,13.20
2019-03-04T06:46:48.259Z,13.10
2019-03-04T06:47:49.798Z,13.20
2019-03-04T06:48:50.954Z,13.20
2019-03-04T06:49:52.088Z,13.20
2019-03-04T06:50:54.628Z,13.30
2019-03-04T06:51:55.769Z,13.20
2019-03-04T06:52:58.826Z,13.20
2019-03-04T06:54:12.473Z,13.20
2019-03-04T06:55:20.393Z,13.10
2019-03-04T06:56:31.161Z,13.10
2019-03-04T06:57:32.298Z,13.10
2019-03-04T06:58:57.946Z,13.10
2019-03-04T07:00:08.507Z,13.10
2019-03-04T07:01:12.249Z,13.10
2019-03-04T07:02:22.873Z,13.10
2019-03-04T07:03:24.026Z,13.10
2019-03-04T07:04:31.593Z,13.10
2019-03-04T07:05:44.846Z,13.10
2019-03-04T07:06:45.993Z,13.10
2019-03-04T07:07:47.409Z,13.10
2019-03-04T07:08:52.378Z,13.10
2019-03-04T07:09:53.507Z,13.10
2019-03-04T07:10:54.646Z,13.10
2019-03-04T07:11:56.094Z,13.00
2019-03-04T07:12:57.401Z,13.00
2019-03-04T07:13:58.552Z,13.10
2019-03-04T07:14:59.998Z,13.00
2019-03-04T07:16:01.141Z,13.10
2019-03-04T07:17:02.278Z,13.10
2019-03-04T07:18:03.413Z,13.10
2019-03-04T07:19:04.563Z,13.10
2019-03-04T07:20:19.229Z,13.10
2019-03-04T07:21:20.389Z,13.10
2019-03-04T07:22:21.549Z,13.10
2019-03-04T07:23:22.695Z,13.20
2019-03-04T07:24:23.941Z,13.10
2019-03-04T07:25:25.078Z,13.10
2019-03-04T07:26:26.218Z,13.00
2019-03-04T07:27:27.622Z,12.90
2019-03-04T07:28:28.755Z,12.80
2019-03-04T07:29:29.915Z,12.40
2019-03-04T07:30:30.934Z,10.70
2019-03-04T07:31:31.990Z,8.30
2019-03-04T07:32:33.103Z,7.70
2019-03-04T07:33:34.257Z,7.00
2019-03-04T07:34:35.806Z,6.70
2019-03-04T07:35:37.086Z,6.70
2019-03-04T07:36:38.226Z,6.60
2019-03-04T07:37:39.366Z,6.70
2019-03-04T07:38:44.074Z,6.60
2019-03-04T07:39:45.223Z,6.70
2019-03-04T07:40:46.363Z,6.70
2019-03-04T07:41:47.498Z,6.70
2019-03-04T07:42:48.962Z,6.70
2019-03-04T07:43:50.175Z,6.80
2019-03-04T07:44:51.313Z,6.80
2019-03-04T07:45:52.458Z,6.80
2019-03-04T07:46:53.699Z,6.80
2019-03-04T07:47:54.834Z,6.90
2019-03-04T07:48:56.000Z,6.90
2019-03-04T07:49:57.141Z,6.90
2019-03-04T07:51:08.168Z,6.90
2019-03-04T07:52:09.309Z,6.90
2019-03-04T07:53:10.790Z,6.80
2019-03-04T07:54:12.841Z,6.80
2019-03-04T07:55:14.077Z,6.80
2019-03-04T07:56:15.209Z,6.90
2019-03-04T07:57:16.347Z,6.90
2019-03-04T07:58:17.793Z,6.90
2019-03-04T07:59:18.963Z,6.90
2019-03-04T08:00:20.102Z,6.90
2019-03-04T08:01:21.232Z,6.90
2019-03-04T08:02:22.730Z,6.90
2019-03-04T08:03:23.872Z,6.90
2019-03-04T08:04:25.029Z,6.90
2019-03-04T08:05:26.362Z,6.90
2019-03-04T08:06:27.502Z,6.90
2019-03-04T08:07:32.536Z,6.90
2019-03-04T08:08:34.865Z,6.80
2019-03-04T08:09:58.013Z,6.80
2019-03-04T08:11:20.005Z,6.80
2019-03-04T08:12:37.025Z,6.80
2019-03-04T08:13:53.817Z,6.80
2019-03-04T08:14:54.974Z,6.80
2019-03-04T08:15:56.529Z,6.80
2019-03-04T08:16:57.670Z,6.80
2019-03-04T08:17:58.804Z,6.80
2019-03-04T08:19:00.325Z,6.80
2019-03-04T08:20:01.478Z,6.80
2019-03-04T08:21:02.817Z,6.80
2019-03-04T08:22:03.959Z,6.80
2019-03-04T08:23:05.097Z,6.90
2019-03-04T08:24:06.238Z,6.90
2019-03-04T08:25:08.999Z,7.10
2019-03-04T08:26:10.142Z,7.10
2019-03-04T08:27:11.626Z,7.20
2019-03-04T08:28:12.871Z,7.20
2019-03-04T08:29:14.306Z,7.20
2019-03-04T08:30:17.057Z,7.30
2019-03-04T08:31:18.301Z,7.40
2019-03-04T08:32:19.750Z,7.40
2019-03-04T08:33:20.886Z,7.50
2019-03-04T08:34:30.743Z,7.50
2019-03-04T08:35:25.410Z,7.50
2019-03-04T08:36:26.547Z,7.50
2019-03-04T08:37:27.686Z,7.60
2019-03-04T08:38:28.846Z,7.80
2019-03-04T08:39:30.346Z,7.80
2019-03-04T08:40:31.506Z,7.90
2019-03-04T08:41:33.021Z,7.90
2019-03-04T08:42:34.162Z,7.90
2019-03-04T08:43:35.595Z,8.00
2019-03-04T08:44:36.742Z,8.00
2019-03-04T08:45:37.894Z,8.10
2019-03-04T08:46:39.048Z,8.30
2019-03-04T08:47:40.302Z,8.20
2019-03-04T08:48:41.441Z,8.30
2019-03-04T08:49:42.918Z,8.40
2019-03-04T08:50:46.075Z,8.40
2019-03-04T08:51:47.312Z,8.50
2019-03-04T08:52:48.456Z,8.50
2019-03-04T08:53:49.605Z,8.50
2019-03-04T08:54:50.754Z,8.50
2019-03-04T08:55:51.906Z,8.50
2019-03-04T08:56:53.049Z,8.50
2019-03-04T08:57:54.194Z,8.50
2019-03-04T08:58:55.337Z,8.60
2019-03-04T08:59:56.481Z,8.60
2019-03-04T09:00:57.738Z,8.70
2019-03-04T09:01:58.916Z,8.70
2019-03-04T09:03:00.179Z,8.70
2019-03-04T09:04:01.324Z,8.90
2019-03-04T09:05:05.990Z,8.90
2019-03-04T09:06:07.253Z,9.00
2019-03-04T09:07:09.017Z,9.00
2019-03-04T09:08:10.282Z,9.20
2019-03-04T09:09:11.426Z,9.40
2019-03-04T09:10:18.070Z,9.50
2019-03-04T09:11:19.102Z,9.70
2019-03-04T09:12:20.236Z,10.00
2019-03-04T09:13:22.242Z,10.00
2019-03-04T09:14:23.315Z,10.00
2019-03-04T09:15:24.397Z,9.90
2019-03-04T09:16:25.881Z,9.80
2019-03-04T09:17:27.026Z,9.80
2019-03-04T09:18:28.157Z,9.80
2019-03-04T09:19:29.295Z,9.70
2019-03-04T09:20:30.445Z,9.70
2019-03-04T09:21:31.581Z,9.70
2019-03-04T09:22:32.742Z,9.70
2019-03-04T09:23:33.884Z,9.60
2019-03-04T09:24:35.034Z,9.60
2019-03-04T09:25:45.327Z,9.70
2019-03-04T09:26:46.465Z,9.80
2019-03-04T09:27:49.809Z,9.90
2019-03-04T09:28:50.949Z,10.00
2019-03-04T09:29:52.095Z,10.00
2019-03-04T09:30:53.536Z,10.00
2019-03-04T09:31:54.697Z,10.00
2019-03-04T09:32:55.717Z,10.00
2019-03-04T09:33:56.867Z,10.00
2019-03-04T09:36:04.180Z,10.00
2019-03-04T09:37:05.255Z,10.10
2019-03-04T09:38:06.317Z,10.10
2019-03-04T09:39:08.039Z,10.20
2019-03-04T09:40:10.962Z,10.20
2019-03-04T09:41:12.417Z,10.20
2019-03-04T09:42:15.362Z,10.20
2019-03-04T09:43:16.591Z,10.30
2019-03-04T09:44:17.731Z,10.20
2019-03-04T09:45:18.969Z,10.30
2019-03-04T09:46:20.117Z,10.40
2019-03-04T09:47:21.258Z,10.40
2019-03-04T09:48:22.393Z,10.50
2019-03-04T09:49:24.354Z,10.50
2019-03-04T09:50:26.702Z,10.60
2019-03-04T09:51:28.159Z,10.60
2019-03-04T09:52:29.307Z,10.60
2019-03-04T09:53:39.150Z,10.60
2019-03-04T09:54:33.502Z,10.60
2019-03-04T09:55:34.841Z,10.70
2019-03-04T09:56:36.174Z,10.60
2019-03-04T09:57:37.190Z,10.80
2019-03-04T09:58:38.254Z,10.70
2019-03-04T09:59:39.341Z,10.70
2019-03-04T10:00:59.169Z,10.80
2019-03-04T10:02:00.349Z,10.80
2019-03-04T10:03:22.181Z,10.90
2019-03-04T10:04:25.521Z,11.00
2019-03-04T10:05:28.591Z,11.30
2019-03-04T10:06:31.625Z,11.50
2019-03-04T10:07:36.594Z,11.60
2019-03-04T10:08:42.389Z,11.60
2019-03-04T10:09:45.325Z,11.60
2019-03-04T10:10:50.268Z,11.60
2019-03-04T10:11:58.023Z,11.60
2019-03-04T10:13:06.955Z,11.50
2019-03-04T10:14:31.598Z,11.50
2019-03-04T10:15:46.238Z,11.50
2019-03-04T10:16:51.187Z,11.30
2019-03-04T10:18:07.711Z,11.10
2019-03-04T10:19:30.955Z,11.10
2019-03-04T10:20:59.373Z,11.00
2019-03-04T10:22:13.320Z,11.00
2019-03-04T10:23:26.873Z,11.00
2019-03-04T10:24:40.674Z,11.00
2019-03-04T10:25:48.862Z,10.90
2019-03-04T10:26:57.308Z,10.90
2019-03-04T10:28:18.744Z,10.90
2019-03-04T10:29:35.706Z,10.90
2019-03-04T10:30:58.884Z,10.90
2019-03-04T10:32:07.603Z,11.00
2019-03-04T10:33:33.393Z,11.10
2019-03-04T10:37:08.314Z,11.00
2019-03-04T10:38:27.243Z,11.10
2019-03-04T10:39:35.578Z,11.10
2019-03-04T10:40:52.585Z,11.10
2019-03-04T10:42:06.173Z,11.20
2019-03-04T10:43:22.695Z,11.30
2019-03-04T10:44:59.294Z,11.20
2019-03-04T10:46:10.005Z,11.20
2019-03-04T10:47:11.405Z,11.20
2019-03-04T10:48:12.558Z,11.40
2019-03-04T10:49:13.694Z,11.40
2019-03-04T10:50:14.842Z,11.40
2019-03-04T10:51:15.985Z,11.40
2019-03-04T10:52:17.132Z,11.40
2019-03-04T10:53:18.275Z,11.40
2019-03-04T10:54:19.429Z,11.30
2019-03-04T10:55:20.903Z,11.20
2019-03-04T10:56:22.046Z,11.10
2019-03-04T10:57:23.193Z,11.00
2019-03-04T10:58:24.441Z,10.90
2019-03-04T10:59:25.593Z,10.80
2019-03-04T11:00:26.921Z,10.50
2019-03-04T11:01:30.603Z,10.10
2019-03-04T11:02:31.500Z,9.90
2019-03-04T11:03:32.633Z,9.70
2019-03-04T11:04:33.773Z,9.40
2019-03-04T11:05:34.920Z,9.30
2019-03-04T11:06:36.069Z,9.10
2019-03-04T11:07:37.214Z,9.00
2019-03-04T11:08:38.369Z,8.70
2019-03-04T11:09:39.509Z,8.60
2019-03-04T11:10:40.664Z,8.60
2019-03-04T11:11:42.422Z,8.60
2019-03-04T11:12:43.577Z,8.70
2019-03-04T11:13:44.722Z,8.80
2019-03-04T11:14:45.862Z,8.80
2019-03-04T11:15:47.253Z,8.80
2019-03-04T11:16:48.391Z,8.90
2019-03-04T11:17:49.918Z,9.00
2019-03-04T11:18:51.065Z,9.00
2019-03-04T11:19:52.205Z,9.10
2019-03-04T11:20:53.345Z,9.00
2019-03-04T11:21:54.862Z,9.00
2019-03-04T11:22:56.018Z,9.10
2019-03-04T11:23:57.430Z,9.20
2019-03-04T11:24:58.570Z,9.30
2019-03-04T11:26:00.030Z,9.50
2019-03-04T11:27:01.252Z,9.60
2019-03-04T11:28:02.511Z,9.60
2019-03-04T11:29:05.569Z,9.60
2019-03-04T11:30:10.413Z,9.50
2019-03-04T11:31:11.550Z,9.50
2019-03-04T11:32:12.700Z,9.50
2019-03-04T11:33:13.850Z,9.60
2019-03-04T11:34:14.998Z,9.80
2019-03-04T11:35:16.152Z,9.90
2019-03-04T11:36:17.319Z,10.00
2019-03-04T11:37:18.821Z,10.10
2019-03-04T11:38:30.931Z,10.10
2019-03-04T11:39:34.057Z,10.30
2019-03-04T11:40:39.157Z,10.30
2019-03-04T11:41:40.314Z,10.20
2019-03-04T11:42:41.800Z,10.20
2019-03-04T11:43:42.933Z,10.20
2019-03-04T11:44:44.066Z,10.20
2019-03-04T11:45:45.207Z,10.10
2019-03-04T11:46:46.450Z,10.10
2019-03-04T11:47:47.601Z,10.10
2019-03-04T11:48:48.738Z,10.20
2019-03-04T11:49:49.898Z,10.20
2019-03-04T11:50:51.035Z,10.20
2019-03-04T11:51:52.177Z,10.10
2019-03-04T11:52:53.339Z,10.10
2019-03-04T11:53:55.281Z,10.10
2019-03-04T11:54:56.453Z,10.10
2019-03-04T11:55:58.103Z,10.10
2019-03-04T11:56:59.334Z,10.00
2019-03-04T11:58:00.485Z,10.00
2019-03-04T11:59:01.630Z,10.00
2019-03-04T12:00:12.773Z,9.90
2019-03-04T12:01:15.813Z,9.80
2019-03-04T12:02:17.958Z,9.80
2019-03-04T12:03:19.131Z,9.70
2019-03-04T12:04:20.275Z,9.50
2019-03-04T12:05:21.413Z,9.40
2019-03-04T12:06:22.559Z,8.80
2019-03-04T12:07:24.036Z,7.30
2019-03-04T12:08:25.182Z,6.40
2019-03-04T12:09:26.604Z,5.80
2019-03-04T12:10:27.748Z,5.60
2019-03-04T12:11:38.032Z,5.60
2019-03-04T12:12:31.930Z,5.60
2019-03-04T12:13:33.090Z,5.50
2019-03-04T12:14:34.230Z,5.60
2019-03-04T12:15:36.066Z,5.50
2019-03-04T12:16:37.522Z,5.60
2019-03-04T12:17:39.050Z,5.70
2019-03-04T12:18:40.224Z,5.80
2019-03-04T12:19:41.369Z,5.70
2019-03-04T12:20:42.937Z,5.70
2019-03-04T12:21:44.420Z,5.70
2019-03-04T12:22:45.551Z,5.70
2019-03-04T12:23:46.697Z,5.70
2019-03-04T12:24:47.840Z,5.70
2019-03-04T12:25:49.086Z,5.70
2019-03-04T12:26:50.217Z,5.70
2019-03-04T12:27:51.354Z,5.70
2019-03-04T12:28:52.505Z,5.70
2019-03-04T12:29:53.647Z,5.70
2019-03-04T12:30:54.786Z,5.60
2019-03-04T12:32:00.603Z,5.70
2019-03-04T12:33:01.734Z,5.70
2019-03-04T12:34:03.314Z,5.70
2019-03-04T12:35:07.537Z,5.70
2019-03-04T12:36:08.738Z,5.70
2019-03-04T12:37:10.202Z,5.70
2019-03-04T12:38:11.361Z,5.80
2019-03-04T12:39:12.533Z,5.80
2019-03-04T12:40:15.665Z,5.80
2019-03-04T12:41:16.789Z,5.80
2019-03-04T12:42:17.927Z,5.80
2019-03-04T12:43:19.092Z,5.80
2019-03-04T12:44:20.330Z,5.80
2019-03-04T12:45:22.463Z,5.80
2019-03-04T12:46:23.694Z,5.80
2019-03-04T12:47:24.834Z,5.90
2019-03-04T12:48:26.266Z,5.90
2019-03-04T12:49:27.401Z,5.90
2019-03-04T12:50:33.264Z,5.90
2019-03-04T12:51:34.655Z,5.90
2019-03-04T12:52:35.802Z,6.00
2019-03-04T12:53:37.649Z,6.00
2019-03-04T12:54:38.896Z,6.00
2019-03-04T12:55:40.039Z,6.20
2019-03-04T12:56:41.179Z,6.20
2019-03-04T12:57:42.321Z,6.20
2019-03-04T12:58:43.825Z,6.30
2019-03-04T12:59:44.964Z,6.30
2019-03-04T13:00:46.113Z,6.40
2019-03-04T13:01:47.550Z,6.40
2019-03-04T13:02:57.119Z,6.50
2019-03-04T13:03:51.948Z,6.60
2019-03-04T13:04:53.087Z,6.60
2019-03-04T13:05:54.105Z,6.70
2019-03-04T13:06:55.121Z,6.80
2019-03-04T13:07:56.140Z,6.80
2019-03-04T13:08:57.508Z,6.80
2019-03-04T13:09:58.537Z,6.70
2019-03-04T13:10:59.725Z,6.80
2019-03-04T13:12:01.226Z,6.70
2019-03-04T13:13:02.353Z,6.70
2019-03-04T13:14:03.807Z,6.70
2019-03-04T13:15:11.788Z,6.70
2019-03-04T13:16:12.942Z,6.80
2019-03-04T13:17:14.082Z,6.80
2019-03-04T13:18:15.237Z,6.80
2019-03-04T13:19:17.364Z,6.80
2019-03-04T13:20:26.497Z,6.90
2019-03-04T13:21:27.641Z,6.90
2019-03-04T13:22:28.785Z,6.90
2019-03-04T13:23:29.929Z,6.90
2019-03-04T13:24:31.082Z,6.90
2019-03-04T13:25:32.230Z,6.90
2019-03-04T13:26:33.383Z,7.00
2019-03-04T13:27:34.534Z,7.00
2019-03-04T13:28:35.669Z,7.00
2019-03-04T13:29:37.073Z,7.10
2019-03-04T13:30:39.869Z,7.20
2019-03-04T13:31:41.013Z,7.30
2019-03-04T13:32:42.144Z,7.30
2019-03-04T13:33:43.373Z,7.30
2019-03-04T13:34:44.637Z,7.20